Time;durP1;ratioP1;P1;durP2;ratioP2;P2;SDS_P1;SDS_P2;PMS_P1;PMS_P2;Temp;Humidity;BMP_temperature;BMP_pressure;BME280_temperature;BME280_humidity;BME280_pressure;Samples;Min_cycle;Max_cycle;Signal;HPM_P1;HPM_P2
2023/06/05 00:02:11;;;;;;;0.70;0.70;;;;;;;16.90;97.82;97462.97;5083542;28;20507;-62
2023/06/05 00:04:39;;;;;;;0.68;0.68;;;;;;;16.53;97.51;97399.03;5083706;28;20078;-62
2023/06/05 00:07:06;;;;;;;0.70;0.70;;;;;;;16.69;96.21;97407.03;5088080;28;20056;-62
2023/06/05 00:09:33;;;;;;;0.70;0.70;;;;;;;17.05;95.44;97445.75;5086857;28;20048;-62
2023/06/05 00:11:59;;;;;;;0.80;0.80;;;;;;;16.71;95.62;97387.84;5088219;28;20060;-61
2023/06/05 00:14:26;;;;;;;0.70;0.70;;;;;;;17.04;94.44;97451.75;5087706;28;20070;-62
2023/06/05 00:16:53;;;;;;;0.80;0.80;;;;;;;14.50;95.38;97087.66;5086320;28;20070;-63
2023/06/05 00:19:20;;;;;;;0.70;0.70;;;;;;;16.82;96.00;97450.19;5075915;28;20056;-61
2023/06/05 00:21:46;;;;;;;0.70;0.70;;;;;;;16.95;94.55;97445.75;5086628;28;20056;-61
2023/06/05 00:24:13;;;;;;;0.80;0.80;;;;;;;16.27;95.17;97352.69;5087478;28;20048;-61
2023/06/05 00:26:40;;;;;;;0.73;0.73;;;;;;;16.91;95.38;97445.78;5074477;28;20055;-61
2023/06/05 00:29:07;;;;;;;0.70;0.70;;;;;;;16.96;94.55;97448.13;5067350;28;20056;-63
2023/06/05 00:31:33;;;;;;;0.70;0.70;;;;;;;16.97;94.32;97443.34;5067026;28;20102;-61
2023/06/05 00:34:00;;;;;;;0.70;0.70;;;;;;;16.96;95.30;97450.94;5083014;28;20138;-61
2023/06/05 00:36:27;;;;;;;0.70;0.70;;;;;;;16.99;96.00;97443.75;5082356;28;20048;-63
2023/06/05 00:38:54;;;;;;;0.73;0.73;;;;;;;17.06;96.15;97454.94;5067038;28;20056;-62
2023/06/05 00:41:21;;;;;;;0.70;0.70;;;;;;;17.17;95.83;97450.09;5066512;28;20525;-61
2023/06/05 00:43:48;;;;;;;0.60;0.60;;;;;;;17.17;96.16;97462.09;5067190;28;20044;-62
2023/06/05 00:46:15;;;;;;;0.80;0.80;;;;;;;16.55;95.78;97352.69;5066557;28;20560;-61
2023/06/05 00:48:43;;;;;;;0.70;0.70;;;;;;;16.93;95.95;97403.41;5066689;28;20092;-61
2023/06/05 00:51:14;;;;;;;0.80;0.80;;;;;;;17.29;96.39;97452.50;5066702;28;20063;-62
2023/06/05 00:53:42;;;;;;;0.70;0.70;;;;;;;17.39;95.43;97457.25;5067598;28;20420;-61
2023/06/05 00:56:09;;;;;;;0.70;0.70;;;;;;;16.86;95.47;97367.00;5066718;28;20075;-61
2023/06/05 00:58:35;;;;;;;0.73;0.73;;;;;;;17.13;96.82;97432.53;5102426;28;20044;-61
2023/06/05 01:01:03;;;;;;;0.60;0.60;;;;;;;16.48;100.00;97428.22;5087033;28;20896;-61
2023/06/05 01:03:33;;;;;;;0.65;0.65;;;;;;;16.27;100.00;97481.28;5087391;28;20536;-62
2023/06/05 01:06:03;;;;;;;0.70;0.70;;;;;;;16.73;100.00;97446.97;5086869;28;20552;-62
2023/06/05 01:08:38;;;;;;;0.70;0.70;;;;;;;16.17;100.00;97387.00;5085590;28;20139;-61
2023/06/05 01:11:28;;;;;;;0.70;0.70;;;;;;;16.72;100.00;97437.78;5086567;28;20060;-61
2023/06/05 01:14:12;;;;;;;0.70;0.70;;;;;;;16.86;100.00;97436.97;5085479;28;20044;-61
2023/06/05 01:16:39;;;;;;;;;;;;;;;16.70;100.00;97425.41;5084517;28;20153;-61
2023/06/05 01:19:10;;;;;;;0.70;0.70;;;;;;;16.61;100.00;97428.63;5086074;28;19988;-63
2023/06/05 01:21:37;;;;;;;0.70;0.70;;;;;;;16.72;100.00;97439.78;5086693;28;20123;-61
2023/06/05 01:24:05;;;;;;;0.70;0.70;;;;;;;16.37;100.00;97395.81;5086872;28;20058;-61
2023/06/05 01:26:53;;;;;;;0.60;0.60;;;;;;;16.61;100.00;97445.41;5086105;28;20505;-61
2023/06/05 01:29:32;;;;;;;0.70;0.70;;;;;;;16.74;100.00;97432.56;5086679;28;20047;-61
2023/06/05 01:32:06;;;;;;;0.75;0.75;;;;;;;16.66;100.00;97453.34;5086248;28;20067;-63
2023/06/05 01:34:35;;;;;;;0.70;0.70;;;;;;;16.45;100.00;97415.00;5085498;28;20121;-61
2023/06/05 01:37:03;;;;;;;0.70;0.70;;;;;;;13.97;100.00;97063.59;5086271;28;20131;-61
2023/06/05 01:39:30;;;;;;;0.70;0.70;;;;;;;16.59;100.00;97440.19;5086564;28;20043;-61
2023/06/05 01:41:58;;;;;;;0.70;0.70;;;;;;;16.49;100.00;97438.19;5084796;28;20135;-62
2023/06/05 01:44:26;;;;;;;0.70;0.70;;;;;;;16.11;100.00;97438.91;5086555;28;20052;-61
2023/06/05 01:46:53;;;;;;;0.70;0.70;;;;;;;16.04;100.00;97443.69;5085495;28;20503;-61
2023/06/05 01:49:21;;;;;;;0.73;0.73;;;;;;;16.30;100.00;97452.53;5084763;28;20131;-60
2023/06/05 01:51:48;;;;;;;0.60;0.60;;;;;;;16.37;100.00;97452.56;5085969;28;20048;-61
2023/06/05 01:54:15;;;;;;;0.70;0.70;;;;;;;16.59;100.00;97448.59;5085937;28;20072;-61
2023/06/05 01:56:43;;;;;;;0.70;0.70;;;;;;;16.77;100.00;97454.16;5085339;28;20498;-61
2023/06/05 01:59:10;;;;;;;0.77;0.77;;;;;;;16.88;100.00;97442.97;5085953;28;20314;-61
2023/06/05 02:01:36;;;;;;;0.70;0.70;;;;;;;16.95;100.00;97454.13;5084469;28;20123;-61
2023/06/05 02:04:04;;;;;;;0.70;0.70;;;;;;;16.98;100.00;97450.53;5085969;28;20060;-61
2023/06/05 02:06:41;;;;;;;0.70;0.70;;;;;;;16.97;100.00;97446.16;5071805;28;20059;-62
2023/06/05 02:09:10;;;;;;;0.70;0.70;;;;;;;17.01;100.00;97453.34;5066152;28;20822;-61
2023/06/05 02:11:37;;;;;;;0.70;0.70;;;;;;;17.12;100.00;97451.31;5065395;28;20857;-61
2023/06/05 02:14:06;;;;;;;0.70;0.70;;;;;;;16.65;100.00;97451.78;5081257;28;20131;-61
2023/06/05 02:16:33;;;;;;;0.70;0.70;;;;;;;16.23;100.00;97446.91;5065194;28;20341;-61
2023/06/05 02:19:03;;;;;;;0.68;0.68;;;;;;;16.09;100.00;97452.47;5065392;28;20107;-63
2023/06/05 02:21:32;;;;;;;0.80;0.80;;;;;;;16.21;100.00;97452.13;5065052;28;20135;-61
2023/06/05 02:24:00;;;;;;;0.70;0.70;;;;;;;16.43;100.00;97456.53;5065004;28;20053;-62
2023/06/05 02:26:27;;;;;;;0.70;0.70;;;;;;;16.63;100.00;97458.97;5064038;28;20435;-60
2023/06/05 02:28:55;;;;;;;0.70;0.70;;;;;;;16.71;100.00;97455.75;5064422;28;20056;-61
2023/06/05 02:31:25;;;;;;;0.70;0.70;;;;;;;16.89;100.00;97450.97;5064168;28;20057;-61
2023/06/05 02:33:53;;;;;;;0.70;0.70;;;;;;;16.31;100.00;97356.25;5047311;28;20283;-63
2023/06/05 02:36:22;;;;;;;0.70;0.70;;;;;;;17.01;100.00;97450.53;5064172;28;20078;-63
2023/06/05 02:38:50;;;;;;;0.70;0.70;;;;;;;17.07;100.00;97434.16;5080658;28;20066;-63
2023/06/05 02:41:18;;;;;;;0.75;0.75;;;;;;;16.07;100.00;97273.25;5064860;28;20909;-61
2023/06/05 02:43:45;;;;;;;0.70;0.70;;;;;;;17.22;100.00;97446.91;5064799;28;20057;-62
2023/06/05 02:46:11;;;;;;;0.70;0.70;;;;;;;17.02;100.00;97448.53;5079917;28;20067;-60
2023/06/05 02:48:38;;;;;;;0.80;0.80;;;;;;;17.05;100.00;97451.34;5064030;28;20128;-61
2023/06/05 02:51:06;;;;;;;0.70;0.70;;;;;;;16.99;100.00;97446.56;5064631;28;20519;-64
2023/06/05 02:53:33;;;;;;;0.80;0.80;;;;;;;17.19;100.00;97447.69;5064329;28;20057;-63
2023/06/05 02:56:01;;;;;;;0.80;0.80;;;;;;;16.93;100.00;97395.00;5079982;28;20438;-60
2023/06/05 02:58:28;;;;;;;0.77;0.77;;;;;;;17.38;100.00;97444.44;5081130;28;20093;-60
2023/06/05 03:01:01;;;;;;;0.70;0.70;;;;;;;17.45;100.00;97447.28;5084557;28;20075;-61
2023/06/05 03:03:32;;;;;;;0.75;0.75;;;;;;;17.42;100.00;97450.84;5083007;28;20051;-61
2023/06/05 03:06:04;;;;;;;0.70;0.70;;;;;;;17.44;100.00;97454.03;5084590;28;20048;-62
2023/06/05 03:08:32;;;;;;;0.70;0.70;;;;;;;17.49;100.00;97456.44;5082766;28;20080;-62
2023/06/05 03:11:03;;;;;;;0.70;0.70;;;;;;;17.56;100.00;97448.81;5084453;28;20060;-62
2023/06/05 03:13:30;;;;;;;0.80;0.80;;;;;;;17.51;100.00;97443.66;5083061;28;20044;-61
2023/06/05 03:15:58;;;;;;;0.70;0.70;;;;;;;17.55;100.00;97454.81;5084664;28;20074;-60
2023/06/05 03:18:25;;;;;;;0.70;0.70;;;;;;;17.47;100.00;97458.84;5083030;28;20048;-61
2023/06/05 03:20:54;;;;;;;0.73;0.73;;;;;;;17.53;100.00;97446.03;5084372;28;20493;-60
2023/06/05 03:23:28;;;;;;;0.80;0.80;;;;;;;17.54;100.00;97464.44;5084658;28;20056;-61
2023/06/05 03:25:55;;;;;;;0.70;0.70;;;;;;;17.66;99.48;97438.75;5083086;28;20056;-62
2023/06/05 03:28:23;;;;;;;0.70;0.70;;;;;;;17.65;99.33;97434.38;5083600;28;20545;-61
2023/06/05 03:30:50;;;;;;;0.80;0.80;;;;;;;17.74;99.00;97445.94;5082412;28;20052;-61
2023/06/05 03:33:17;;;;;;;0.70;0.70;;;;;;;17.84;98.26;97450.72;5084271;28;20106;-61
2023/06/05 03:35:48;;;;;;;0.70;0.70;;;;;;;17.93;98.06;97451.06;5084043;28;20084;-62
2023/06/05 03:38:15;;;;;;;0.80;0.80;;;;;;;18.08;95.81;97444.19;5084261;28;20068;-61
2023/06/05 03:40:43;;;;;;;0.70;0.70;;;;;;;18.09;96.50;97445.75;5083168;28;20541;-60
2023/06/05 03:43:10;;;;;;;0.70;0.70;;;;;;;17.81;96.53;97412.28;5084180;28;20503;-60
2023/06/05 03:45:40;;;;;;;0.70;0.70;;;;;;;17.99;95.18;97402.56;5082778;28;20056;-61
2023/06/05 03:48:09;;;;;;;0.73;0.73;;;;;;;18.30;94.79;97434.41;5084345;28;20048;-61
2023/06/05 03:50:37;;;;;;;0.80;0.80;;;;;;;18.28;94.77;97436.81;5082538;28;20083;-60
2023/06/05 03:53:05;;;;;;;0.80;0.80;;;;;;;18.39;94.79;97431.97;5084084;28;20151;-61
2023/06/05 03:55:41;;;;;;;0.80;0.80;;;;;;;18.66;92.85;97438.56;5083975;28;20135;-61
2023/06/05 03:58:15;;;;;;;0.73;0.73;;;;;;;18.79;91.08;97439.66;5084089;28;20417;-61
2023/06/05 04:00:44;;;;;;;0.80;0.80;;;;;;;18.75;91.57;97433.28;5083920;28;20044;-61
2023/06/05 04:03:12;;;;;;;0.70;0.70;;;;;;;18.59;91.49;97395.75;5083940;28;20044;-62
2023/06/05 04:05:39;;;;;;;0.80;0.80;;;;;;;19.05;90.03;97439.00;5082873;28;20056;-63
2023/06/05 04:08:07;;;;;;;0.90;0.90;;;;;;;19.11;89.12;97436.56;5083889;28;20048;-61
2023/06/05 04:10:34;;;;;;;0.80;0.80;;;;;;;19.05;89.35;97443.81;5084269;28;20075;-64
2023/06/05 04:13:01;;;;;;;0.82;0.82;;;;;;;18.60;89.62;97375.69;5084053;28;20441;-61
2023/06/05 04:15:28;;;;;;;0.75;0.75;;;;;;;19.13;89.40;97443.34;5083815;28;20048;-61
2023/06/05 04:17:55;;;;;;;0.73;0.73;;;;;;;18.64;89.57;97376.44;5084393;28;20052;-61
2023/06/05 04:20:22;;;;;;;0.80;0.80;;;;;;;18.75;89.12;97371.53;5083657;28;20063;-61
2023/06/05 04:22:49;;;;;;;0.80;0.80;;;;;;;19.36;88.14;97440.69;5082332;28;20059;-61
2023/06/05 04:25:16;;;;;;;0.80;0.80;;;;;;;19.33;87.00;97433.13;5083410;28;20400;-61
2023/06/05 04:27:45;;;;;;;0.90;0.90;;;;;;;19.30;87.39;97433.94;5083700;28;20063;-61
2023/06/05 04:30:13;;;;;;;0.80;0.80;;;;;;;17.33;87.60;97117.22;5083082;28;20056;-61
2023/06/05 04:32:41;;;;;;;0.90;0.90;;;;;;;19.64;85.48;97435.97;5082467;28;20044;-61
2023/06/05 04:35:11;;;;;;;0.85;0.85;;;;;;;19.76;85.52;97432.63;5083080;28;20083;-62
2023/06/05 04:37:39;;;;;;;0.80;0.80;;;;;;;19.72;86.34;97434.66;5083293;28;20135;-63
2023/06/05 04:40:08;;;;;;;0.75;0.75;;;;;;;19.70;85.60;97408.97;5083069;28;20063;-62
2023/06/05 04:42:36;;;;;;;0.90;0.90;;;;;;;20.14;84.93;97451.03;5083626;28;20062;-61
2023/06/05 04:45:06;;;;;;;0.80;0.80;;;;;;;20.10;83.52;97441.78;5081502;28;20044;-62
2023/06/05 04:47:34;;;;;;;0.80;0.80;;;;;;;19.96;83.66;97444.81;5083315;28;20048;-62
2023/06/05 04:50:06;;;;;;;0.80;0.80;;;;;;;20.10;84.31;97436.97;5082960;28;20052;-62
2023/06/05 04:52:39;;;;;;;0.70;0.70;;;;;;;19.64;84.50;97372.13;5084577;28;20044;-62
2023/06/05 04:55:07;;;;;;;0.80;0.80;;;;;;;20.25;83.08;97446.06;5087292;28;20043;-61
2023/06/05 04:57:34;;;;;;;0.80;0.80;;;;;;;20.38;82.66;97455.47;5087212;28;20079;-60
2023/06/05 05:00:04;;;;;;;0.80;0.80;;;;;;;20.34;81.85;97449.13;5085198;28;20484;-60
2023/06/05 05:02:31;;;;;;;0.80;0.80;;;;;;;19.99;81.54;97368.84;5085607;28;20495;-61
2023/06/05 05:04:57;;;;;;;0.80;0.80;;;;;;;20.61;81.27;97449.91;5087056;28;20052;-62
2023/06/05 05:07:26;;;;;;;0.85;0.85;;;;;;;20.70;80.47;97461.41;5087270;28;20048;-60
2023/06/05 05:09:53;;;;;;;0.90;0.90;;;;;;;20.88;80.17;97459.91;5085723;28;20051;-60
2023/06/05 05:12:19;;;;;;;0.90;0.90;;;;;;;21.15;79.90;97454.22;5086630;28;20044;-60
2023/06/05 05:14:46;;;;;;;0.80;0.80;;;;;;;20.89;79.22;97441.00;5086558;28;20044;-61
2023/06/05 05:17:15;;;;;;;0.80;0.80;;;;;;;21.28;77.31;97443.94;5085558;28;20103;-61
2023/06/05 05:19:41;;;;;;;0.80;0.80;;;;;;;21.58;76.46;97468.31;5084952;28;20047;-60
2023/06/05 05:22:08;;;;;;;0.90;0.90;;;;;;;21.36;76.76;97465.13;5086624;28;20051;-61
2023/06/05 05:24:35;;;;;;;0.90;0.90;;;;;;;21.35;76.57;97468.38;5086422;28;20060;-61
2023/06/05 05:27:02;;;;;;;1.00;1.00;;;;;;;21.41;76.28;97477.91;5086041;28;20348;-60
2023/06/05 05:29:29;;;;;;;0.90;0.90;;;;;;;21.45;76.71;97461.75;5086015;28;20514;-60
2023/06/05 05:31:55;;;;;;;0.80;0.80;;;;;;;21.08;75.90;97409.28;5086417;28;20133;-60
2023/06/05 05:34:22;;;;;;;0.90;0.90;;;;;;;21.76;75.27;97472.44;5086118;28;20538;-60
2023/06/05 05:36:49;;;;;;;0.90;0.90;;;;;;;21.12;74.13;97353.66;5086067;28;20088;-60
2023/06/05 05:39:15;;;;;;;0.95;0.95;;;;;;;21.87;74.47;97461.72;5085054;28;20110;-61
2023/06/05 05:41:42;;;;;;;0.90;0.90;;;;;;;21.84;74.61;97468.25;5085918;28;20048;-61
2023/06/05 05:44:09;;;;;;;0.98;0.98;;;;;;;21.98;74.84;97467.94;5086411;28;20052;-59
2023/06/05 05:46:35;;;;;;;0.90;0.90;;;;;;;21.26;74.25;97359.00;5072068;28;20040;-65
2023/06/05 05:49:02;;;;;;;0.90;0.90;;;;;;;21.22;78.62;97468.19;5084976;28;20489;-63
2023/06/05 05:51:29;;;;;;;0.80;0.80;;;;;;;21.28;77.85;97455.19;5081467;28;20456;-60
2023/06/05 05:53:56;;;;;;;0.90;0.90;;;;;;;20.51;76.93;97308.13;5080002;28;20047;-60
2023/06/05 05:56:22;;;;;;;0.90;0.90;;;;;;;21.84;76.34;97471.06;5063944;28;20063;-61
2023/06/05 05:58:49;;;;;;;0.90;0.90;;;;;;;21.77;76.07;97471.19;5074948;28;20041;-60
2023/06/05 06:01:16;;;;;;;0.95;0.95;;;;;;;21.55;76.45;97472.81;5071262;28;20553;-59
2023/06/05 06:03:43;;;;;;;0.88;0.88;;;;;;;21.37;76.21;97398.28;5083311;28;20426;-65
2023/06/05 06:06:11;;;;;;;0.90;0.90;;;;;;;22.07;74.73;97470.97;5077401;28;20097;-58
2023/06/05 06:08:38;;;;;;;0.90;0.90;;;;;;;22.28;73.73;97469.72;5084221;28;20059;-66
2023/06/05 06:11:06;;;;;;;0.90;0.90;;;;;;;22.05;73.87;97469.81;5084423;28;20048;-65
2023/06/05 06:13:34;;;;;;;0.93;0.93;;;;;;;21.64;75.87;97470.22;5071214;28;20054;-60
2023/06/05 06:16:02;;;;;;;0.90;0.90;;;;;;;22.08;74.95;97474.59;5083203;28;20534;-65
2023/06/05 06:18:30;;;;;;;1.00;1.00;;;;;;;21.84;72.98;97377.97;5072123;28;20044;-62
2023/06/05 06:20:58;;;;;;;0.90;0.90;;;;;;;22.43;72.22;97483.06;5071403;28;20051;-72
2023/06/05 06:23:25;;;;;;;0.90;0.90;;;;;;;22.32;71.77;97474.03;5076079;28;20502;-60
2023/06/05 06:25:51;;;;;;;0.90;0.90;;;;;;;22.60;70.37;97457.72;5073222;28;20509;-62
2023/06/05 06:28:19;;;;;;;0.90;0.90;;;;;;;22.82;69.87;97470.09;5070454;28;20040;-59
2023/06/05 06:30:46;;;;;;;0.95;0.95;;;;;;;22.79;69.96;97437.06;5078354;28;20182;-61
2023/06/05 06:33:13;;;;;;;1.17;1.17;;;;;;;23.10;69.12;97463.72;5072695;28;20135;-64
2023/06/05 06:35:40;;;;;;;1.00;1.00;;;;;;;22.70;69.38;97453.84;5084440;28;20040;-63
2023/06/05 06:38:07;;;;;;;1.17;1.17;;;;;;;22.20;70.77;97406.19;5078627;28;20044;-69
2023/06/05 06:40:33;;;;;;;1.00;1.00;;;;;;;22.81;70.53;97460.03;5075639;28;20052;-65
2023/06/05 06:43:00;;;;;;;1.10;1.10;;;;;;;22.53;69.85;97390.09;5080170;28;20044;-62
2023/06/05 06:45:27;;;;;;;1.00;1.00;;;;;;;23.00;69.35;97425.25;5083084;28;20135;-69
2023/06/05 06:47:54;;;;;;;0.90;0.90;;;;;;;23.24;69.77;97452.06;5084577;28;20877;-61
2023/06/05 06:50:34;;;;;;;1.02;1.02;;;;;;;23.39;69.11;97453.31;5071253;28;20060;-65
2023/06/05 06:53:01;;;;;;;1.00;1.00;;;;;;;23.44;68.52;97416.00;5070715;28;20048;-64
2023/06/05 06:55:28;;;;;;;1.08;1.08;;;;;;;23.69;67.94;97450.84;5073659;28;20060;-61
2023/06/05 06:57:55;;;;;;;1.10;1.10;;;;;;;23.25;69.02;97464.97;5063579;28;20052;-60
2023/06/05 07:00:23;;;;;;;1.08;1.08;;;;;;;22.76;69.63;97406.88;5064930;28;20049;-65
2023/06/05 07:02:50;;;;;;;0.98;0.98;;;;;;;22.71;70.31;97413.06;5067760;28;21114;-60
2023/06/05 07:05:19;;;;;;;1.20;1.20;;;;;;;22.80;71.68;97450.75;5066364;28;20082;-62
2023/06/05 07:07:46;;;;;;;0.90;0.90;;;;;;;22.63;70.45;97377.75;5063998;28;20052;-64
2023/06/05 07:10:13;;;;;;;1.00;1.00;;;;;;;23.36;70.08;97460.63;5070000;28;20554;-62
2023/06/05 07:12:40;;;;;;;1.08;1.08;;;;;;;23.41;69.21;97456.50;5081166;28;20113;-65
2023/06/05 07:15:07;;;;;;;0.93;0.93;;;;;;;23.31;68.75;97451.91;5081658;28;20067;-60
2023/06/05 07:17:33;;;;;;;1.02;1.02;;;;;;;23.12;68.92;97447.13;5083860;28;20052;-68
2023/06/05 07:20:00;;;;;;;1.02;1.02;;;;;;;23.13;67.94;97443.06;5083762;28;20139;-70
2023/06/05 07:22:29;;;;;;;1.10;1.10;;;;;;;22.32;68.00;97284.09;5082738;28;20143;-68
2023/06/05 07:24:56;;;;;;;1.10;1.10;;;;;;;23.66;64.60;97450.94;5083901;28;20453;-62
2023/06/05 07:27:23;;;;;;;1.13;1.13;;;;;;;23.27;66.30;97434.22;5078719;28;20110;-64
2023/06/05 07:29:49;;;;;;;1.15;1.15;;;;;;;23.44;65.01;97444.28;5064359;28;20053;-62
2023/06/05 07:32:18;;;;;;;1.15;1.15;;;;;;;23.35;65.39;97452.59;5073549;28;20048;-63
2023/06/05 07:34:45;;;;;;;1.13;1.13;;;;;;;23.24;64.82;97435.09;5084143;28;20325;-62
2023/06/05 07:37:11;;;;;;;1.00;1.00;;;;;;;23.30;65.54;97439.03;5069264;28;20048;-62
2023/06/05 07:39:38;;;;;;;1.00;1.00;;;;;;;23.50;64.86;97425.53;5082683;28;20056;-65
2023/06/05 07:42:06;;;;;;;1.08;1.08;;;;;;;23.26;63.88;97432.66;5076422;28;20521;-60
2023/06/05 07:44:33;;;;;;;1.00;1.00;;;;;;;22.90;64.31;97393.19;5063972;28;20457;-63
2023/06/05 07:46:59;;;;;;;1.20;1.20;;;;;;;23.64;64.13;97425.13;5069989;28;20047;-68
2023/06/05 07:49:31;;;;;;;1.10;1.10;;;;;;;23.74;61.47;97438.19;5067846;28;20096;-66
2023/06/05 07:51:59;;;;;;;1.10;1.10;;;;;;;23.85;60.92;97418.88;5063327;28;20076;-62
2023/06/05 07:54:26;;;;;;;1.08;1.08;;;;;;;24.13;58.82;97440.69;5063540;28;20507;-64
2023/06/05 07:56:54;;;;;;;1.30;1.30;;;;;;;24.08;57.28;97438.41;5063547;28;20426;-62
2023/06/05 07:59:24;;;;;;;1.20;1.20;;;;;;;24.22;58.40;97425.84;5081582;28;20641;-62
2023/06/05 08:01:52;;;;;;;1.08;1.08;;;;;;;24.10;59.18;97390.63;5068818;28;20040;-64
2023/06/05 08:04:19;;;;;;;1.10;1.10;;;;;;;24.73;58.41;97439.63;5078571;28;20053;-65
2023/06/05 08:06:46;;;;;;;1.20;1.20;;;;;;;24.17;58.17;97328.13;5051550;28;20047;-71
2023/06/05 08:09:13;;;;;;;1.17;1.17;;;;;;;25.12;57.86;97439.13;5076884;28;20055;-65
2023/06/05 08:11:41;;;;;;;1.25;1.25;;;;;;;24.90;56.10;97375.09;5083135;28;20083;-72
2023/06/05 08:14:09;;;;;;;1.38;1.38;;;;;;;25.11;56.92;97446.06;5076810;28;20062;-64
2023/06/05 08:16:36;;;;;;;1.15;1.15;;;;;;;25.08;56.82;97440.50;5068000;28;20049;-65
2023/06/05 08:19:03;;;;;;;1.30;1.30;;;;;;;25.15;56.81;97421.19;5063389;28;20416;-66
2023/06/05 08:21:30;;;;;;;1.40;1.40;;;;;;;25.16;57.14;97410.66;5063278;28;20057;-63
2023/06/05 08:23:57;;;;;;;1.15;1.15;;;;;;;25.12;57.56;97427.78;5072962;28;20067;-67
2023/06/05 08:26:25;;;;;;;1.08;1.08;;;;;;;24.27;59.05;97439.44;5074901;28;20495;-62
2023/06/05 08:28:52;;;;;;;1.20;1.20;;;;;;;24.37;58.33;97399.50;5067114;28;20660;-62
2023/06/05 08:31:20;;;;;;;1.20;1.20;;;;;;;24.53;56.77;97356.88;5067219;28;20052;-62
2023/06/05 08:33:48;;;;;;;1.27;1.27;;;;;;;24.99;56.05;97421.34;5069433;28;20048;-65
2023/06/05 08:36:14;;;;;;;1.33;1.33;;;;;;;25.23;54.53;97326.09;5072549;28;20079;-64
2023/06/05 08:38:42;;;;;;;1.17;1.17;;;;;;;26.02;53.87;97418.50;5085127;28;20048;-66
2023/06/05 08:41:10;;;;;;;1.52;1.52;;;;;;;26.25;54.45;97418.00;5075360;28;20091;-62
2023/06/05 08:43:44;;;;;;;1.20;1.20;;;;;;;24.76;56.79;97426.59;5065778;28;20044;-64
2023/06/05 08:46:12;;;;;;;1.35;1.35;;;;;;;25.33;56.98;97426.25;5066569;28;20499;-66
2023/06/05 08:48:44;;;;;;;1.50;1.50;;;;;;;25.46;54.76;97424.19;5074321;28;20361;-61
2023/06/05 08:51:16;;;;;;;1.13;1.13;;;;;;;24.50;57.16;97328.69;5068966;28;20063;-66
2023/06/05 08:53:54;;;;;;;1.30;1.30;;;;;;;24.40;55.99;97318.47;5086566;28;20518;-62
2023/06/05 08:56:21;;;;;;;1.40;1.40;;;;;;;24.48;57.61;97343.28;5085293;28;20139;-64
2023/06/05 08:58:49;;;;;;;1.08;1.08;;;;;;;25.91;55.71;97409.56;5077244;28;20330;-61
2023/06/05 09:01:16;;;;;;;1.30;1.30;;;;;;;25.83;53.36;97323.09;5076031;28;20040;-63
2023/06/05 09:03:43;;;;;;;1.25;1.25;;;;;;;26.62;52.74;97402.69;5067145;28;20055;-64
2023/06/05 09:06:10;;;;;;;1.40;1.40;;;;;;;26.61;52.14;97426.72;5075802;28;20040;-68
2023/06/05 09:08:37;;;;;;;1.70;1.70;;;;;;;26.41;50.40;97347.53;5071086;28;20052;-66
2023/06/05 09:11:25;;;;;;;1.40;1.40;;;;;;;26.77;51.19;97403.75;5066269;28;20040;-62
2023/06/05 09:13:53;;;;;;;1.60;1.60;;;;;;;25.45;51.05;97172.16;5069672;28;20526;-65
2023/06/05 09:16:21;;;;;;;1.50;1.50;;;;;;;26.71;51.96;97397.88;5083991;28;20082;-64
2023/06/05 09:18:57;;;;;;;1.48;1.48;;;;;;;25.97;53.87;97407.72;5084940;28;20044;-66
2023/06/05 09:21:32;;;;;;;1.25;1.25;;;;;;;26.21;52.47;97406.78;5069756;28;20056;-64
2023/06/05 09:24:09;;;;;;;1.40;1.40;;;;;;;26.28;52.10;97414.25;5072490;28;20867;-61
2023/06/05 09:26:45;;;;;;;1.40;1.40;;;;;;;26.54;51.83;97407.88;5079783;28;20461;-65
2023/06/05 09:29:12;;;;;;;1.40;1.40;;;;;;;25.18;51.10;97131.03;5096108;28;20522;-65
2023/06/05 09:31:42;;;;;;;1.40;1.40;;;;;;;26.28;52.59;97408.56;5084112;28;20511;-61
2023/06/05 09:34:09;;;;;;;1.50;1.50;;;;;;;25.67;53.07;97366.66;5066398;28;20062;-67
2023/06/05 09:36:45;;;;;;;1.50;1.50;;;;;;;26.53;51.94;97411.19;5073222;28;20051;-68
2023/06/05 09:39:18;;;;;;;1.38;1.38;;;;;;;26.84;51.74;97406.31;5083263;28;20056;-65
2023/06/05 09:41:47;;;;;;;1.37;1.37;;;;;;;25.48;51.25;97143.66;5086111;28;20569;-66
2023/06/05 09:44:13;;;;;;;1.60;1.60;;;;;;;27.16;50.81;97405.72;5086054;28;20070;-60
2023/06/05 09:46:53;;;;;;;1.63;1.63;;;;;;;26.71;50.87;97337.41;5086361;28;20044;-63
2023/06/05 09:49:30;;;;;;;1.40;1.40;;;;;;;27.32;49.56;97404.69;5085717;28;20056;-62
2023/06/05 09:52:01;;;;;;;1.50;1.50;;;;;;;27.11;50.18;97394.97;5086124;28;20056;-60
2023/06/05 09:54:30;;;;;;;1.48;1.48;;;;;;;25.61;53.01;97402.56;5085801;28;20052;-61
2023/06/05 09:57:03;;;;;;;1.40;1.40;;;;;;;25.52;54.58;97398.84;5085467;28;20265;-62
2023/06/05 09:59:34;;;;;;;1.30;1.30;;;;;;;26.08;52.94;97399.63;5085005;28;20143;-61
2023/06/05 10:02:05;;;;;;;1.30;1.30;;;;;;;26.05;51.80;97340.91;5085691;28;20136;-62
2023/06/05 10:05:03;;;;;;;1.20;1.20;;;;;;;26.59;52.34;97381.69;5086017;28;20056;-61
2023/06/05 10:07:32;;;;;;;1.35;1.35;;;;;;;26.79;51.95;97367.13;5085616;28;20055;-60
2023/06/05 10:09:59;;;;;;;1.63;1.63;;;;;;;27.22;50.52;97374.63;5085560;28;20105;-60
2023/06/05 10:12:27;;;;;;;1.30;1.30;;;;;;;27.66;49.66;97388.09;5084165;28;20519;-60
2023/06/05 10:14:57;;;;;;;1.60;1.60;;;;;;;28.05;49.40;97378.59;5085420;28;20526;-63
2023/06/05 10:17:25;;;;;;;1.50;1.50;;;;;;;28.40;48.12;97375.31;5085293;28;20097;-61
2023/06/05 10:19:52;;;;;;;1.60;1.60;;;;;;;28.80;46.68;97365.16;5085141;28;20048;-63
2023/06/05 10:22:19;;;;;;;1.65;1.65;;;;;;;28.88;45.90;97314.25;5082972;28;20052;-62
2023/06/05 10:24:51;;;;;;;1.75;1.75;;;;;;;29.20;46.17;97367.63;5082854;28;20048;-63
2023/06/05 10:27:48;;;;;;;1.52;1.52;;;;;;;28.96;46.06;97366.84;5083596;28;20048;-59
2023/06/05 10:30:33;;;;;;;1.60;1.60;;;;;;;28.63;46.75;97366.06;5082223;28;20048;-62
2023/06/05 10:33:19;;;;;;;1.80;1.80;;;;;;;28.64;46.52;97367.63;5084616;28;20052;-59
2023/06/05 10:35:49;;;;;;;1.50;1.50;;;;;;;28.16;48.13;97363.81;5073217;28;20139;-63
2023/06/05 10:38:27;;;;;;;1.42;1.42;;;;;;;28.26;48.15;97342.59;5064687;28;20044;-60
2023/06/05 10:40:56;;;;;;;1.67;1.67;;;;;;;28.84;47.04;97353.56;5064568;28;20063;-63
2023/06/05 10:43:45;;;;;;;1.60;1.60;;;;;;;29.09;46.39;97353.94;5080182;28;20527;-63
2023/06/05 10:46:27;;;;;;;1.40;1.40;;;;;;;28.97;46.15;97351.28;5064341;28;20404;-63
2023/06/05 10:49:17;;;;;;;1.60;1.60;;;;;;;28.97;46.37;97351.28;5064219;28;20251;-61
2023/06/05 10:51:48;;;;;;;1.58;1.58;;;;;;;28.45;46.42;97314.78;5064076;28;20053;-60
2023/06/05 10:54:21;;;;;;;1.50;1.50;;;;;;;28.86;46.88;97351.03;5096416;28;20048;-63
2023/06/05 10:56:52;;;;;;;1.67;1.67;;;;;;;29.23;45.84;97353.19;5082236;28;20130;-65
2023/06/05 10:59:39;;;;;;;1.67;1.67;;;;;;;29.10;45.91;97351.88;5082715;28;20062;-61
2023/06/05 11:02:06;;;;;;;1.40;1.40;;;;;;;29.67;44.88;97352.56;5072274;28;20481;-67
2023/06/05 11:04:53;;;;;;;1.55;1.55;;;;;;;29.58;44.27;97344.81;5062625;28;20080;-61
2023/06/05 11:07:24;;;;;;;1.83;1.83;;;;;;;29.36;44.06;97341.50;5067226;28;20059;-64
2023/06/05 11:10:04;;;;;;;1.52;1.52;;;;;;;29.16;45.00;97335.66;5062318;28;20065;-65
2023/06/05 11:12:43;;;;;;;1.40;1.40;;;;;;;28.90;45.75;97340.22;5084626;28;20519;-63
2023/06/05 11:15:10;;;;;;;1.65;1.65;;;;;;;28.85;46.30;97338.84;5080058;28;20126;-62
2023/06/05 11:17:46;;;;;;;1.60;1.60;;;;;;;28.59;46.62;97336.94;5071575;28;20052;-60
2023/06/05 11:20:25;;;;;;;1.52;1.52;;;;;;;28.82;45.42;97336.16;5066863;28;20562;-68
2023/06/05 11:22:52;;;;;;;1.80;1.80;;;;;;;28.78;45.67;97336.34;5092038;27;20048;-62
2023/06/05 11:25:21;;;;;;;1.55;1.55;;;;;;;28.96;44.47;97341.94;5063561;28;20416;-64
2023/06/05 11:27:50;;;;;;;1.70;1.70;;;;;;;29.16;44.65;97347.88;5064302;28;20490;-61
2023/06/05 11:30:20;;;;;;;1.45;1.45;;;;;;;29.35;44.14;97331.38;5077288;28;20117;-60
2023/06/05 11:33:16;;;;;;;1.70;1.70;;;;;;;29.81;42.68;97329.72;5084140;28;20048;-64
2023/06/05 11:35:46;;;;;;;2.13;2.13;;;;;;;29.83;42.99;97338.56;5081902;28;20101;-66
2023/06/05 11:38:18;;;;;;;1.77;1.77;;;;;;;30.02;43.34;97322.81;5077172;28;20166;-61
2023/06/05 11:40:49;;;;;;;1.63;1.63;;;;;;;30.34;42.61;97330.41;5063461;28;20092;-68
2023/06/05 11:43:16;;;;;;;1.88;1.88;;;;;;;29.65;42.80;97241.66;5066130;28;20049;-63